Time;durP1;ratioP1;P1;durP2;ratioP2;P2;SDS_P1;SDS_P2;PMS_P1;PMS_P2;Temp;Humidity;BMP_temperature;BMP_pressure;BME280_temperature;BME280_humidity;BME280_pressure;Samples;Min_cycle;Max_cycle;Signal;HPM_P1;HPM_P2
2022/11/16 00:01:32;;;;;;;10.90;7.13;;;21.30;50.10;;;;;;5010430;28;20053;-66
2022/11/16 00:04:01;;;;;;;9.77;6.82;;;21.30;50.10;;;;;;5010942;28;20049;-66
2022/11/16 00:06:28;;;;;;;9.32;6.95;;;21.30;50.10;;;;;;5005829;28;20531;-66
2022/11/16 00:11:47;;;;;;;9.65;7.05;;;21.30;50.10;;;;;;5010963;28;20050;-67
2022/11/16 00:14:14;;;;;;;7.55;6.35;;;21.30;50.00;;;;;;5009871;28;20050;-66
2022/11/16 00:16:42;;;;;;;10.07;7.97;;;21.30;50.10;;;;;;5010215;28;20046;-67
2022/11/16 00:19:10;;;;;;;9.02;6.95;;;21.30;50.10;;;;;;5009294;28;20060;-66
2022/11/16 00:21:37;;;;;;;7.40;6.18;;;21.30;50.00;;;;;;5009950;28;20042;-67
2022/11/16 00:24:05;;;;;;;8.55;6.90;;;21.30;50.00;;;;;;4976724;28;20060;-67
2022/11/16 00:26:32;;;;;;;8.95;6.60;;;21.30;50.00;;;;;;5010806;28;20050;-68
2022/11/16 00:28:59;;;;;;;8.57;6.85;;;21.30;50.00;;;;;;4992771;28;20054;-66
2022/11/16 00:31:26;;;;;;;8.23;6.43;;;21.20;49.90;;;;;;5013722;28;20506;-66
2022/11/16 00:33:53;;;;;;;8.20;6.20;;;21.30;50.00;;;;;;5030430;28;20077;-66
2022/11/16 00:36:20;;;;;;;10.15;7.35;;;21.30;50.00;;;;;;5029826;28;20053;-67
2022/11/16 00:38:52;;;;;;;9.82;6.90;;;21.20;49.90;;;;;;5025880;28;20347;-66
2022/11/16 00:41:19;;;;;;;9.52;7.20;;;21.20;49.90;;;;;;5029957;28;20064;-66
2022/11/16 00:43:46;;;;;;;8.23;6.07;;;21.20;49.90;;;;;;5029582;28;20056;-67
2022/11/16 00:46:13;;;;;;;9.02;6.72;;;21.20;49.90;;;;;;5029846;28;20060;-67
2022/11/16 00:48:40;;;;;;;9.38;6.43;;;21.20;49.90;;;;;;5029508;28;20056;-66
2022/11/16 00:51:07;;;;;;;8.32;6.57;;;21.20;50.00;;;;;;5029417;28;20194;-67
2022/11/16 00:53:35;;;;;;;10.05;7.93;;;21.20;50.00;;;;;;5029582;28;20060;-66
2022/11/16 00:56:03;;;;;;;9.43;6.72;;;21.20;50.00;;;;;;5029237;28;20060;-66
2022/11/16 00:58:30;;;;;;;9.82;6.78;;;21.20;50.00;;;;;;5029874;28;20206;-66
2022/11/16 01:01:06;;;;;;;9.73;6.88;;;21.20;50.00;;;;;;5028674;28;20049;-67
2022/11/16 01:03:35;;;;;;;9.73;7.20;;;21.20;50.00;;;;;;5029058;28;20041;-66
2022/11/16 01:06:04;;;;;;;10.07;7.10;;;21.20;50.00;;;;;;5010956;28;20045;-66
2022/11/16 01:08:32;;;;;;;8.93;7.03;;;21.20;50.00;;;;;;5029389;28;20064;-66
2022/11/16 01:13:48;;;;;;;8.23;6.35;;;21.20;50.00;;;;;;5029786;28;20077;-66
2022/11/16 01:16:16;;;;;;;8.55;7.03;;;21.20;50.00;;;;;;5029362;28;20049;-66
2022/11/16 01:18:47;;;;;;;9.50;6.68;;;21.10;49.90;;;;;;5028757;28;20160;-67
2022/11/16 01:21:14;;;;;;;9.15;6.60;;;21.10;50.00;;;;;;5029312;28;20049;-66
2022/11/16 01:23:41;;;;;;;10.18;6.95;;;21.10;49.90;;;;;;5028594;28;20081;-68
2022/11/16 01:26:08;;;;;;;8.95;6.00;;;21.20;50.00;;;;;;5028285;28;20053;-66
2022/11/16 01:28:35;;;;;;;6.70;6.03;;;21.10;49.90;;;;;;5028947;28;20054;-66
2022/11/16 01:31:03;;;;;;;8.27;6.22;;;21.10;50.00;;;;;;5028565;28;20052;-67
2022/11/16 01:33:30;;;;;;;8.30;6.45;;;21.10;50.00;;;;;;5029360;28;20053;-66
2022/11/16 01:35:57;;;;;;;8.85;6.60;;;21.10;50.00;;;;;;5028527;28;20495;-66
2022/11/16 01:38:24;;;;;;;8.23;6.80;;;21.10;50.00;;;;;;5029536;28;20045;-66
2022/11/16 01:40:56;;;;;;;7.97;5.93;;;21.10;50.00;;;;;;5028419;28;20050;-67
2022/11/16 01:43:24;;;;;;;8.15;6.47;;;21.10;50.00;;;;;;5006509;28;20577;-66
2022/11/16 01:45:51;;;;;;;9.15;6.88;;;21.10;50.00;;;;;;5028938;28;20180;-67
2022/11/16 01:48:23;;;;;;;8.10;6.35;;;21.10;50.00;;;;;;5028771;28;20045;-66
2022/11/16 01:50:52;;;;;;;7.00;5.97;;;21.10;50.00;;;;;;5028430;28;20541;-66
2022/11/16 01:53:19;;;;;;;8.55;6.50;;;21.10;50.00;;;;;;5028421;28;20060;-66
2022/11/16 01:55:48;;;;;;;8.25;6.47;;;21.00;50.00;;;;;;5028362;28;20076;-68
2022/11/16 01:58:19;;;;;;;9.10;5.97;;;21.00;50.00;;;;;;5028945;28;20052;-67
2022/11/16 02:00:47;;;;;;;8.80;6.80;;;21.00;50.00;;;;;;5028121;28;20053;-66
2022/11/16 02:03:19;;;;;;;8.23;6.53;;;21.00;50.00;;;;;;5028373;28;20087;-67
2022/11/16 02:06:24;;;;;;;8.25;6.50;;;21.00;50.00;;;;;;5028143;28;20421;-66
2022/11/16 02:12:53;;;;;;;8.98;6.50;;;21.00;50.00;;;;;;5027693;28;20049;-66
2022/11/16 02:15:49;;;;;;;8.93;7.00;;;21.10;50.10;;;;;;5024299;28;20050;-66
2022/11/16 02:18:46;;;;;;;8.15;5.97;;;21.10;50.10;;;;;;4994054;28;20038;-66
2022/11/16 02:21:30;;;;;;;7.15;5.63;;;21.10;50.10;;;;;;5028366;28;20406;-67
2022/11/16 02:24:21;;;;;;;8.38;6.22;;;21.10;50.00;;;;;;5027510;28;20461;-67
2022/11/16 02:27:09;;;;;;;8.82;6.28;;;21.10;50.00;;;;;;5028398;28;20607;-66
2022/11/16 02:29:43;;;;;;;8.38;6.10;;;21.00;50.00;;;;;;5027568;28;20037;-66
2022/11/16 02:32:41;;;;;;;8.02;6.07;;;21.10;50.00;;;;;;5027835;28;20053;-66
2022/11/16 02:35:24;;;;;;;6.93;5.43;;;21.10;50.00;;;;;;5027988;28;20046;-67
2022/11/16 02:37:57;;;;;;;7.95;6.20;;;21.10;50.00;;;;;;5028006;28;20510;-66
2022/11/16 02:40:29;;;;;;;8.25;6.22;;;21.10;49.90;;;;;;5010152;28;20045;-66
2022/11/16 02:43:06;;;;;;;9.40;6.57;;;21.10;50.00;;;;;;5027941;28;20395;-67
2022/11/16 02:45:39;;;;;;;8.48;6.28;;;21.10;50.00;;;;;;5027351;28;20541;-67
2022/11/16 02:48:13;;;;;;;9.38;6.95;;;21.10;49.90;;;;;;5024781;28;20223;-67
2022/11/16 02:50:42;;;;;;;8.30;6.18;;;21.10;49.90;;;;;;5028113;28;20060;-66
2022/11/16 02:53:09;;;;;;;7.55;6.07;;;21.00;49.90;;;;;;5027644;28;20049;-66
2022/11/16 02:55:36;;;;;;;8.50;6.30;;;21.00;49.90;;;;;;5010425;28;20075;-66
2022/11/16 02:58:09;;;;;;;9.13;5.70;;;21.10;50.00;;;;;;5010162;28;20063;-67
2022/11/16 03:01:00;;;;;;;8.23;6.05;;;21.00;49.90;;;;;;5027538;28;20258;-66
2022/11/16 03:03:47;;;;;;;7.13;5.55;;;21.00;49.90;;;;;;5009826;28;20104;-66
2022/11/16 03:06:23;;;;;;;7.60;5.78;;;21.00;49.90;;;;;;5027680;28;20067;-66
2022/11/16 03:09:07;;;;;;;7.75;5.57;;;21.00;50.00;;;;;;5027426;28;20068;-66
2022/11/16 03:14:43;;;;;;;7.15;5.95;;;21.00;49.90;;;;;;5027846;28;20045;-66
2022/11/16 03:17:18;;;;;;;7.80;6.35;;;21.00;49.90;;;;;;5025938;28;20391;-67
2022/11/16 03:20:03;;;;;;;8.02;5.88;;;21.00;50.40;;;;;;5006690;28;20501;-66
2022/11/16 03:22:37;;;;;;;8.38;6.30;;;21.00;49.90;;;;;;5027375;28;20053;-66
2022/11/16 03:25:06;;;;;;;8.15;5.95;;;21.00;49.90;;;;;;5027589;28;20497;-67
2022/11/16 03:27:52;;;;;;;7.50;5.90;;;21.00;49.90;;;;;;5027433;28;20422;-66
2022/11/16 03:30:30;;;;;;;7.40;5.97;;;21.00;49.90;;;;;;5027415;28;20049;-66
2022/11/16 03:33:23;;;;;;;7.43;5.90;;;21.00;49.90;;;;;;5009808;28;20049;-66
2022/11/16 03:36:08;;;;;;;7.18;5.47;;;21.00;49.90;;;;;;5026934;28;20510;-66
2022/11/16 03:38:38;;;;;;;7.13;5.47;;;21.00;49.90;;;;;;5028129;28;20045;-66
2022/11/16 03:41:08;;;;;;;6.60;5.22;;;21.00;49.90;;;;;;5009795;28;20132;-66
2022/11/16 03:43:37;;;;;;;6.63;5.15;;;21.00;49.90;;;;;;5027068;28;20201;-66
2022/11/16 03:46:05;;;;;;;9.07;5.97;;;21.00;49.90;;;;;;5027533;28;20677;-68
2022/11/16 03:48:34;;;;;;;6.50;5.80;;;21.00;49.90;;;;;;5004040;28;20057;-66
2022/11/16 03:51:03;;;;;;;7.43;5.95;;;21.00;49.90;;;;;;5006786;28;20053;-66
2022/11/16 03:53:30;;;;;;;7.38;5.72;;;21.00;49.90;;;;;;4993082;28;20496;-67
2022/11/16 03:55:57;;;;;;;7.18;5.75;;;21.00;49.80;;;;;;5011109;28;20056;-67
2022/11/16 03:58:24;;;;;;;6.78;5.50;;;21.00;49.80;;;;;;5010862;28;20496;-67
2022/11/16 04:00:52;;;;;;;7.63;5.80;;;21.00;49.90;;;;;;5010565;28;20050;-67
2022/11/16 04:03:20;;;;;;;8.88;6.28;;;21.00;49.80;;;;;;5024380;28;20053;-67
2022/11/16 04:25:37;;;;;;;5.97;4.88;;;21.00;49.80;;;;;;5029326;28;20084;-66
2022/11/16 04:28:18;;;;;;;7.03;5.55;;;21.00;49.80;;;;;;5030900;28;20045;-66
2022/11/16 04:39:11;;;;;;;6.32;4.63;;;21.10;49.80;;;;;;5027582;28;20148;-66
2022/11/16 04:47:05;;;;;;;6.93;5.05;;;21.10;49.80;;;;;;5030177;28;20052;-67
2022/11/16 04:47:12;;;;;;;6.90;5.10;;;21.10;49.80;;;;;;5029759;28;20049;-66
2022/11/16 04:49:39;;;;;;;6.07;5.18;;;21.10;49.70;;;;;;5027894;28;20364;-67
2022/11/16 04:52:07;;;;;;;6.55;5.38;;;21.10;49.70;;;;;;5009659;28;20056;-67
2022/11/16 04:54:34;;;;;;;7.00;5.30;;;21.10;49.70;;;;;;5006920;28;20052;-66
2022/11/16 04:57:01;;;;;;;7.22;5.07;;;21.10;49.70;;;;;;4995314;28;20033;-66
2022/11/16 04:59:28;;;;;;;6.40;5.18;;;21.10;49.60;;;;;;5029302;28;20049;-67
2022/11/16 05:02:08;;;;;;;6.85;5.10;;;21.10;49.60;;;;;;5011813;28;20045;-67
2022/11/16 05:04:41;;;;;;;6.95;5.32;;;21.10;49.60;;;;;;5027074;28;20528;-67
2022/11/16 05:07:10;;;;;;;5.78;4.70;;;21.10;49.60;;;;;;5022010;28;20053;-67
2022/11/16 05:09:40;;;;;;;6.68;5.40;;;21.10;49.60;;;;;;5023883;28;20045;-66
2022/11/16 05:12:09;;;;;;;5.28;4.13;;;21.10;49.60;;;;;;5029087;28;20049;-67
2022/11/16 05:14:36;;;;;;;6.93;4.95;;;21.10;49.60;;;;;;5029404;28;20080;-67
2022/11/16 05:17:03;;;;;;;6.78;4.82;;;21.10;49.60;;;;;;5028198;28;20105;-66
2022/11/16 05:22:17;;;;;;;6.45;4.47;;;21.10;49.60;;;;;;5013383;28;20042;-66
2022/11/16 05:24:44;;;;;;;4.88;4.30;;;21.10;49.80;;;;;;4997172;28;20056;-67
2022/11/16 05:27:14;;;;;;;6.85;5.13;;;21.00;49.60;;;;;;5024869;28;20045;-66
2022/11/16 05:29:41;;;;;;;6.03;4.57;;;21.10;49.60;;;;;;5028360;28;20049;-67
2022/11/16 05:32:10;;;;;;;5.75;4.50;;;21.00;49.50;;;;;;5028061;28;20454;-66
2022/11/16 05:34:38;;;;;;;6.40;5.05;;;21.10;49.60;;;;;;5024291;28;20042;-67
2022/11/16 05:37:05;;;;;;;6.03;4.45;;;21.10;50.10;;;;;;5020945;28;20046;-66
2022/11/16 05:39:32;;;;;;;8.23;5.78;;;21.10;49.40;;;;;;5028812;28;20071;-66
2022/11/16 05:41:59;;;;;;;6.97;5.53;;;21.00;49.20;;;;;;5028868;28;20056;-67
2022/11/16 05:44:26;;;;;;;13.23;7.07;;;21.10;49.10;;;;;;5021133;28;20132;-66
2022/11/16 05:46:54;;;;;;;7.53;5.78;;;21.10;49.00;;;;;;5028951;28;20061;-67
2022/11/16 05:49:22;;;;;;;6.68;5.07;;;21.10;48.90;;;;;;5027812;28;20064;-67
2022/11/16 05:51:49;;;;;;;7.40;5.13;;;21.10;48.80;;;;;;5028468;28;20057;-67
2022/11/16 05:54:19;;;;;;;7.40;5.25;;;21.10;48.70;;;;;;5028736;28;20053;-67
2022/11/16 05:56:48;;;;;;;8.02;6.00;;;21.10;48.70;;;;;;5028110;28;20045;-67
2022/11/16 05:59:16;;;;;;;7.28;5.85;;;21.10;48.70;;;;;;5027133;28;20046;-67
2022/11/16 06:01:44;;;;;;;8.98;6.75;;;21.00;48.70;;;;;;5020777;28;20208;-67
2022/11/16 06:04:11;;;;;;;7.65;5.90;;;21.00;48.60;;;;;;5024331;28;20049;-67
2022/11/16 06:06:39;;;;;;;7.43;5.60;;;21.00;48.60;;;;;;5020790;28;20053;-67
2022/11/16 06:09:07;;;;;;;8.27;5.95;;;21.00;48.60;;;;;;5007473;28;20542;-67
2022/11/16 06:11:36;;;;;;;7.88;5.60;;;21.00;48.60;;;;;;5028220;28;20042;-66
2022/11/16 06:14:04;;;;;;;8.90;5.88;;;21.00;48.60;;;;;;5025023;28;20072;-68
2022/11/16 06:16:31;;;;;;;7.32;5.68;;;21.00;48.60;;;;;;5025656;28;20048;-66
2022/11/16 06:18:59;;;;;;;10.32;6.70;;;21.00;48.60;;;;;;5017838;28;20054;-63
2022/11/16 06:21:26;;;;;;;9.10;6.28;;;21.00;48.60;;;;;;5019543;28;20509;-67
2022/11/16 06:23:54;;;;;;;9.70;6.75;;;21.00;48.60;;;;;;5018327;28;21021;-64
2022/11/16 06:26:21;;;;;;;8.95;6.10;;;21.00;48.70;;;;;;5023271;28;20073;-67
2022/11/16 06:28:49;;;;;;;9.80;6.53;;;21.00;49.00;;;;;;5021965;28;20049;-66
2022/11/16 06:31:16;;;;;;;7.40;5.80;;;21.00;49.00;;;;;;5016315;28;20037;-69
2022/11/16 06:33:43;;;;;;;12.20;6.32;;;21.00;49.10;;;;;;5023108;28;20059;-68
2022/11/16 06:36:10;;;;;;;8.70;6.20;;;21.00;49.20;;;;;;4993157;28;20053;-70
2022/11/16 06:38:38;;;;;;;7.18;5.97;;;21.00;49.30;;;;;;5019936;28;20049;-69
2022/11/16 06:41:05;;;;;;;10.38;7.35;;;21.10;49.50;;;;;;5002118;28;20041;-68
2022/11/16 06:43:33;;;;;;;9.65;6.47;;;21.10;49.50;;;;;;5018162;28;20060;-69
2022/11/16 06:46:00;;;;;;;8.68;7.05;;;21.10;49.50;;;;;;5024008;28;20052;-70
2022/11/16 06:48:27;;;;;;;10.30;6.72;;;21.10;49.50;;;;;;5015618;28;20060;-69
2022/11/16 06:50:54;;;;;;;11.75;7.45;;;21.20;49.60;;;;;;5020687;28;20128;-69
2022/11/16 06:53:21;;;;;;;9.73;6.70;;;21.20;49.50;;;;;;5014648;28;20054;-70
2022/11/16 06:55:59;;;;;;;9.93;7.40;;;21.20;49.80;;;;;;5012200;28;20142;-69
2022/11/16 06:58:29;;;;;;;11.35;7.75;;;21.20;49.10;;;;;;5021663;28;20518;-70
2022/11/16 07:00:57;;;;;;;13.43;8.23;;;21.20;49.00;;;;;;5017734;28;20045;-69
2022/11/16 07:03:24;;;;;;;11.48;7.93;;;21.20;48.90;;;;;;5011454;28;20632;-68
2022/11/16 07:05:52;;;;;;;10.18;7.65;;;21.30;48.90;;;;;;5017523;28;20289;-69
2022/11/16 07:08:19;;;;;;;10.40;7.18;;;21.30;48.80;;;;;;5020427;28;20049;-69
2022/11/16 07:10:47;;;;;;;10.00;7.47;;;21.30;48.80;;;;;;5020707;28;20034;-69
2022/11/16 07:13:14;;;;;;;13.40;8.13;;;21.30;48.80;;;;;;5020472;28;20046;-69
2022/11/16 07:15:41;;;;;;;10.40;7.45;;;21.30;49.00;;;;;;5014710;28;20444;-68
2022/11/16 07:18:09;;;;;;;12.02;7.63;;;21.40;49.30;;;;;;5001026;28;20160;-66
2022/11/16 07:20:37;;;;;;;10.52;7.72;;;21.30;49.20;;;;;;5015840;28;20041;-67
2022/11/16 07:23:04;;;;;;;10.73;8.20;;;21.40;49.40;;;;;;5022602;28;20052;-68
2022/11/16 07:25:38;;;;;;;12.63;8.00;;;21.40;49.40;;;;;;5021295;28;20042;-69
2022/11/16 07:28:05;;;;;;;12.02;8.00;;;21.40;49.50;;;;;;5020228;28;20048;-69
2022/11/16 07:30:32;;;;;;;13.50;8.23;;;21.50;49.50;;;;;;5016985;28;20068;-69
2022/11/16 07:32:59;;;;;;;11.68;8.13;;;21.50;49.40;;;;;;5018249;28;20049;-69
2022/11/16 07:35:26;;;;;;;11.68;8.38;;;21.50;49.40;;;;;;5015639;28;20045;-68
2022/11/16 07:37:53;;;;;;;12.63;8.48;;;21.50;49.40;;;;;;5018987;28;20064;-63
2022/11/16 07:40:21;;;;;;;12.82;7.97;;;21.60;49.30;;;;;;5021509;28;20136;-70
2022/11/16 07:42:48;;;;;;;12.38;8.55;;;21.60;49.20;;;;;;5018142;28;20049;-68
2022/11/16 07:45:15;;;;;;;13.30;9.30;;;21.70;49.20;;;;;;5022125;28;20108;-68
2022/11/16 07:47:42;;;;;;;13.63;9.48;;;21.70;49.30;;;;;;5000355;28;20053;-68
2022/11/16 07:50:09;;;;;;;14.50;9.40;;;21.70;49.40;;;;;;5018015;28;20514;-65
2022/11/16 07:52:37;;;;;;;12.35;9.18;;;21.80;49.20;;;;;;4998814;28;20042;-69
2022/11/16 07:55:05;;;;;;;13.98;8.68;;;21.80;49.10;;;;;;5019297;28;20065;-66
2022/11/16 07:57:32;;;;;;;13.23;8.90;;;21.90;49.10;;;;;;5022765;28;20056;-69
2022/11/16 07:59:59;;;;;;;14.27;8.88;;;21.90;49.10;;;;;;5025417;28;20041;-67
2022/11/16 08:02:26;;;;;;;12.18;8.52;;;21.90;49.00;;;;;;5021009;28;20045;-65
2022/11/16 08:04:54;;;;;;;12.55;9.00;;;21.90;49.00;;;;;;5018535;28;20136;-66
2022/11/16 08:07:21;;;;;;;12.57;9.35;;;21.90;49.00;;;;;;5015394;28;20057;-68
2022/11/16 08:09:48;;;;;;;14.35;8.63;;;21.90;49.10;;;;;;5017420;28;20057;-65
2022/11/16 08:12:16;;;;;;;13.48;8.63;;;22.00;49.30;;;;;;5015778;28;20052;-67
2022/11/16 08:14:43;;;;;;;12.13;8.13;;;22.00;49.40;;;;;;4999796;28;20057;-66
2022/11/16 08:17:11;;;;;;;12.20;8.30;;;22.00;49.40;;;;;;5023232;28;20041;-65
2022/11/16 08:19:41;;;;;;;13.00;9.85;;;22.00;49.50;;;;;;5020031;28;20045;-69
2022/11/16 08:22:08;;;;;;;16.15;9.77;;;22.00;49.70;;;;;;5018617;28;20053;-66
2022/11/16 08:24:35;;;;;;;14.68;8.68;;;22.00;49.70;;;;;;5020046;28;20048;-68
2022/11/16 08:27:03;;;;;;;12.98;8.88;;;22.10;49.80;;;;;;5011324;28;20064;-67
2022/11/16 08:29:30;;;;;;;12.05;8.52;;;22.10;49.80;;;;;;5020058;28;20052;-68
2022/11/16 08:32:00;;;;;;;12.48;8.98;;;22.20;49.90;;;;;;5018163;28;20050;-72
2022/11/16 08:34:27;;;;;;;12.52;8.50;;;22.20;49.90;;;;;;5017584;28;20085;-69
2022/11/16 08:36:54;;;;;;;12.60;8.82;;;22.20;49.90;;;;;;5024099;28;20127;-67
2022/11/16 08:39:21;;;;;;;12.05;8.85;;;22.20;49.90;;;;;;5020819;28;20049;-72
2022/11/16 08:41:50;;;;;;;15.77;9.18;;;22.20;49.80;;;;;;5013830;28;20053;-72
2022/11/16 08:44:17;;;;;;;18.15;9.57;;;22.30;49.80;;;;;;5018442;28;20491;-68
2022/11/16 08:46:44;;;;;;;13.52;9.68;;;22.30;49.70;;;;;;5021617;28;20050;-68
2022/11/16 08:49:11;;;;;;;14.52;9.65;;;22.30;49.60;;;;;;5019356;28;20452;-68
2022/11/16 08:51:38;;;;;;;12.70;9.20;;;22.40;49.70;;;;;;5022124;28;20049;-70
2022/11/16 08:54:06;;;;;;;13.00;9.52;;;22.40;49.60;;;;;;5021394;28;20065;-69
2022/11/16 08:56:33;;;;;;;12.70;8.82;;;22.40;49.50;;;;;;5022817;28;20057;-68
2022/11/16 08:59:01;;;;;;;12.43;9.10;;;22.50;49.40;;;;;;5019390;28;20088;-68
2022/11/16 09:01:31;;;;;;;13.45;9.43;;;22.40;49.20;;;;;;5019053;28;20041;-67
2022/11/16 09:03:58;;;;;;;;;;;22.50;49.10;;;;;;5020424;28;20041;-68
2022/11/16 09:06:27;;;;;;;13.20;9.98;;;22.50;49.00;;;;;;5004860;28;19921;-68
2022/11/16 09:08:55;;;;;;;13.23;9.73;;;22.50;49.00;;;;;;5021307;28;20057;-67
2022/11/16 09:11:28;;;;;;;15.40;8.80;;;22.50;49.10;;;;;;5021095;28;20069;-67
2022/11/16 09:13:55;;;;;;;15.18;9.20;;;22.50;49.20;;;;;;5016196;28;20503;-68
2022/11/16 09:16:23;;;;;;;14.98;10.35;;;22.50;49.20;;;;;;5024192;28;20056;-67
2022/11/16 09:18:51;;;;;;;14.82;9.02;;;22.60;49.20;;;;;;5021099;28;20061;-68
2022/11/16 09:21:23;;;;;;;15.40;9.55;;;22.60;49.10;;;;;;5016886;28;20042;-67
2022/11/16 09:23:50;;;;;;;11.48;8.65;;;22.60;49.00;;;;;;5019234;28;20591;-66
2022/11/16 09:26:20;;;;;;;11.95;8.60;;;22.60;48.90;;;;;;5024609;28;20038;-69
2022/11/16 09:28:52;;;;;;;14.13;8.32;;;22.60;48.90;;;;;;5021487;28;20056;-68
2022/11/16 09:31:19;;;;;;;11.55;8.50;;;22.60;48.90;;;;;;5016312;28;20041;-67
2022/11/16 09:33:49;;;;;;;13.18;8.23;;;22.60;48.90;;;;;;5025111;28;20050;-67
2022/11/16 09:36:17;;;;;;;11.95;8.95;;;22.60;48.80;;;;;;5022698;28;20056;-66
2022/11/16 09:38:45;;;;;;;12.30;7.75;;;22.60;48.70;;;;;;5019067;28;20055;-69
2022/11/16 09:41:52;;;;;;;10.07;7.45;;;22.60;48.80;;;;;;5016126;28;20085;-69
2022/11/16 09:44:44;;;;;;;12.80;8.05;;;22.60;48.80;;;;;;5019609;28;20570;-70
2022/11/16 09:47:17;;;;;;;10.13;7.60;;;22.60;48.90;;;;;;5017905;28;20463;-69
2022/11/16 09:49:52;;;;;;;11.35;7.90;;;22.60;48.80;;;;;;5017378;28;20439;-68
2022/11/16 09:52:43;;;;;;;9.77;7.40;;;22.60;48.80;;;;;;5023362;28;20045;-68
2022/11/16 09:55:44;;;;;;;14.88;7.68;;;22.50;48.80;;;;;;5022101;28;20055;-70
2022/11/16 09:58:24;;;;;;;10.52;7.63;;;22.50;48.80;;;;;;5021641;28;20053;-67
2022/11/16 10:01:02;;;;;;;10.20;7.35;;;22.50;48.90;;;;;;5021778;28;20049;-65
2022/11/16 10:03:34;;;;;;;10.20;7.38;;;22.50;49.00;;;;;;5020002;28;20052;-65
2022/11/16 10:06:05;;;;;;;10.60;7.40;;;22.50;48.90;;;;;;5023575;28;20518;-68
2022/11/16 10:08:44;;;;;;;11.98;8.10;;;22.60;48.90;;;;;;5018937;28;20077;-68
2022/11/16 10:11:51;;;;;;;11.07;7.10;;;22.50;48.90;;;;;;5020587;28;20057;-68
2022/11/16 10:14:49;;;;;;;8.73;7.32;;;22.60;49.00;;;;;;4996491;28;20052;-67
2022/11/16 10:17:36;;;;;;;8.50;6.80;;;22.60;48.80;;;;;;5020473;28;20041;-68
2022/11/16 10:20:39;;;;;;;10.57;7.40;;;22.60;48.80;;;;;;5018377;28;20041;-67
2022/11/16 10:23:48;;;;;;;12.60;7.93;;;22.60;48.80;;;;;;5007715;28;20402;-67
2022/11/16 10:26:33;;;;;;;12.80;8.55;;;22.70;48.80;;;;;;4986818;28;20046;-67
2022/11/16 10:29:39;;;;;;;10.23;7.50;;;22.70;48.70;;;;;;5019734;28;20475;-67
2022/11/16 10:32:17;;;;;;;12.57;7.68;;;22.70;48.70;;;;;;5018934;28;20419;-67
2022/11/16 10:34:54;;;;;;;12.02;7.82;;;22.70;48.70;;;;;;5014488;28;20049;-66
2022/11/16 10:37:27;;;;;;;10.90;8.00;;;22.70;48.70;;;;;;5018772;28;20055;-66
2022/11/16 10:39:54;;;;;;;11.10;7.47;;;22.70;48.70;;;;;;5021899;28;20042;-67
2022/11/16 10:42:31;;;;;;;8.77;7.38;;;22.70;48.70;;;;;;5018136;28;20061;-67
2022/11/16 10:45:20;;;;;;;12.55;7.63;;;22.70;48.70;;;;;;5016875;28;20056;-66
2022/11/16 10:48:20;;;;;;;10.10;6.90;;;22.70;48.60;;;;;;5023575;28;20344;-67
2022/11/16 10:50:50;;;;;;;10.13;6.88;;;22.70;48.70;;;;;;4981641;28;20780;-69
2022/11/16 10:53:30;;;;;;;13.90;8.25;;;22.70;48.70;;;;;;5020013;28;20049;-69
2022/11/16 10:56:36;;;;;;;9.25;7.07;;;22.70;48.70;;;;;;5025037;28;20054;-68
2022/11/16 10:59:05;;;;;;;9.50;6.97;;;22.70;48.70;;;;;;5029812;28;20053;-72
2022/11/16 11:01:36;;;;;;;9.32;6.97;;;22.70;48.60;;;;;;5025161;28;20531;-67
2022/11/16 11:04:22;;;;;;;9.63;7.55;;;22.70;48.60;;;;;;4988227;28;20060;-70
2022/11/16 11:06:52;;;;;;;7.65;6.40;;;22.80;48.60;;;;;;5020085;28;20053;-67
2022/11/16 11:09:30;;;;;;;9.45;7.00;;;22.80;48.70;;;;;;5006601;28;20053;-68
2022/11/16 11:15:24;;;;;;;11.90;7.13;;;22.80;48.50;;;;;;5026592;28;20053;-70
2022/11/16 11:18:18;;;;;;;8.50;6.82;;;22.80;48.50;;;;;;5024829;28;20080;-68
2022/11/16 11:20:49;;;;;;;10.20;6.85;;;22.80;48.50;;;;;;5023136;28;20038;-68
2022/11/16 11:23:22;;;;;;;8.63;6.97;;;22.80;48.40;;;;;;5026554;28;20046;-68
2022/11/16 11:25:59;;;;;;;10.38;6.75;;;22.80;48.30;;;;;;5024852;28;20128;-68
2022/11/16 11:28:32;;;;;;;12.20;7.43;;;22.80;48.20;;;;;;5006875;28;20527;-68
2022/11/16 11:31:10;;;;;;;8.32;6.25;;;22.80;48.30;;;;;;5006843;28;20068;-68
2022/11/16 11:33:47;;;;;;;9.88;5.97;;;22.80;48.20;;;;;;5020488;28;20056;-67
2022/11/16 11:36:22;;;;;;;10.88;7.22;;;22.80;48.30;;;;;;5026090;28;20053;-68
2022/11/16 11:39:25;;;;;;;11.50;6.95;;;22.80;48.30;;;;;;5019308;28;20384;-67
2022/11/16 11:42:20;;;;;;;9.00;6.30;;;22.80;48.20;;;;;;5003896;28;20076;-67
2022/11/16 11:44:58;;;;;;;8.32;7.20;;;22.80;48.20;;;;;;5026724;28;20056;-68
2022/11/16 11:48:06;;;;;;;9.02;6.60;;;22.80;48.30;;;;;;5008332;28;20041;-68
2022/11/16 11:50:48;;;;;;;8.27;6.22;;;22.80;48.40;;;;;;5020597;28;20053;-67
2022/11/16 11:53:40;;;;;;;9.05;6.88;;;22.80;48.50;;;;;;5006149;28;20403;-66
2022/11/16 11:56:10;;;;;;;8.18;6.35;;;22.80;48.70;;;;;;5020520;28;20048;-67
2022/11/16 11:58:40;;;;;;;8.65;6.28;;;22.70;48.80;;;;;;5011205;28;20041;-68
2022/11/16 12:01:47;;;;;;;7.88;6.30;;;22.80;48.90;;;;;;5027060;28;20046;-67
2022/11/16 12:04:53;;;;;;;8.50;5.97;;;22.70;48.90;;;;;;5022055;28;20045;-67
2022/11/16 12:07:55;;;;;;;8.90;6.38;;;22.80;49.00;;;;;;5021748;28;20159;-67
2022/11/16 12:10:37;;;;;;;13.93;6.80;;;22.70;49.10;;;;;;5020687;28;20053;-67
2022/11/16 12:13:38;;;;;;;8.93;6.50;;;22.70;49.20;;;;;;5022138;28;20061;-69
2022/11/16 12:16:35;;;;;;;10.35;5.78;;;22.70;49.20;;;;;;5009207;28;20515;-65
2022/11/16 12:19:35;;;;;;;11.77;6.72;;;22.70;49.30;;;;;;5021582;28;20211;-67
2022/11/16 12:22:22;;;;;;;9.43;6.80;;;22.70;49.30;;;;;;5021455;28;20042;-67
2022/11/16 12:25:29;;;;;;;9.98;7.47;;;22.70;49.40;;;;;;5022798;28;20530;-66
2022/11/16 12:28:38;;;;;;;9.90;7.03;;;22.70;49.50;;;;;;5019354;28;20064;-68
2022/11/16 12:31:39;;;;;;;10.70;7.43;;;22.70;49.40;;;;;;5014529;28;20475;-66
2022/11/16 12:34:29;;;;;;;8.48;6.30;;;22.70;49.50;;;;;;5020725;28;20052;-66
2022/11/16 12:37:26;;;;;;;9.27;7.03;;;22.70;49.60;;;;;;5020108;28;20053;-66
2022/11/16 12:40:24;;;;;;;9.85;6.60;;;22.60;50.10;;;;;;5023148;28;20049;-66
2022/11/16 12:43:31;;;;;;;9.43;6.82;;;22.70;49.70;;;;;;5015547;28;20072;-67
2022/11/16 12:46:30;;;;;;;11.48;7.65;;;22.60;49.60;;;;;;5019703;28;20136;-66
2022/11/16 12:49:37;;;;;;;10.63;7.70;;;22.60;49.70;;;;;;5017703;28;20153;-66
2022/11/16 12:52:33;;;;;;;10.40;7.20;;;22.60;49.70;;;;;;5006066;28;20499;-69
2022/11/16 12:55:24;;;;;;;11.70;7.45;;;22.60;49.80;;;;;;5028020;28;20055;-68
2022/11/16 12:58:10;;;;;;;16.38;7.95;;;22.60;49.80;;;;;;5006374;28;20045;-69
2022/11/16 13:01:17;;;;;;;11.48;8.27;;;22.60;49.80;;;;;;5024730;28;20099;-68
2022/11/16 13:03:52;;;;;;;12.77;7.20;;;22.60;49.80;;;;;;5006336;28;20041;-68
2022/11/16 13:06:37;;;;;;;11.57;7.03;;;22.60;49.70;;;;;;5019287;28;20053;-69
2022/11/16 13:09:22;;;;;;;11.35;7.18;;;22.60;49.90;;;;;;5020264;28;20436;-66
2022/11/16 13:11:57;;;;;;;13.07;7.55;;;22.60;49.90;;;;;;5021151;28;20058;-69
2022/11/16 13:14:49;;;;;;;10.75;7.53;;;22.70;50.10;;;;;;5019578;28;20056;-67
2022/11/16 13:17:21;;;;;;;11.48;7.63;;;22.60;50.10;;;;;;5020234;28;20049;-63
2022/11/16 13:20:11;;;;;;;9.98;7.90;;;22.60;50.10;;;;;;5021979;28;20072;-63
2022/11/16 13:22:55;;;;;;;10.15;7.75;;;22.60;50.00;;;;;;5024751;28;20072;-65
2022/11/16 13:25:47;;;;;;;10.25;7.30;;;22.60;50.00;;;;;;5025463;28;20049;-64
2022/11/16 13:28:34;;;;;;;10.43;8.05;;;22.60;50.00;;;;;;5019717;28;20065;-65
2022/11/16 13:31:11;;;;;;;11.50;8.02;;;22.60;50.00;;;;;;5023645;28;20466;-67
2022/11/16 13:33:52;;;;;;;11.70;7.38;;;22.60;50.00;;;;;;5020545;28;20471;-65
2022/11/16 13:36:43;;;;;;;10.10;7.65;;;22.60;50.10;;;;;;5018899;28;20053;-66
2022/11/16 13:39:13;;;;;;;11.75;8.40;;;22.60;50.10;;;;;;5020514;28;20056;-72
2022/11/16 13:41:50;;;;;;;11.43;7.90;;;22.60;50.10;;;;;;5011864;28;20053;-65
2022/11/16 13:44:24;;;;;;;10.70;7.60;;;22.60;50.10;;;;;;5019017;28;20060;-64
2022/11/16 13:47:03;;;;;;;11.38;7.88;;;22.60;50.10;;;;;;5018068;28;20045;-66
2022/11/16 13:49:40;;;;;;;12.43;7.80;;;22.60;50.20;;;;;;5020795;28;20062;-65
2022/11/16 13:52:10;;;;;;;12.50;8.90;;;22.60;50.20;;;;;;5022798;28;20053;-64
2022/11/16 13:54:54;;;;;;;11.18;8.20;;;22.60;50.20;;;;;;5006554;28;20053;-67
2022/11/16 13:57:32;;;;;;;11.80;7.95;;;22.60;50.20;;;;;;5022036;28;20053;-65
2022/11/16 14:00:19;;;;;;;11.32;7.45;;;22.60;50.20;;;;;;5021261;28;20132;-65
2022/11/16 14:02:46;;;;;;;12.23;8.50;;;22.60;50.30;;;;;;5019164;28;20481;-64
2022/11/16 14:05:40;;;;;;;13.35;8.60;;;22.60;50.30;;;;;;5019000;28;20491;-67
2022/11/16 14:08:43;;;;;;;14.93;8.63;;;22.60;50.30;;;;;;5014559;28;20063;-66
2022/11/16 14:11:35;;;;;;;11.23;7.60;;;22.50;50.40;;;;;;5009320;28;20042;-65
2022/11/16 14:14:08;;;;;;;11.43;8.02;;;22.60;50.50;;;;;;5018362;28;20041;-66